Weather at Long Geng Airport

Public forecast

Using degrees Celsius for public forecast. Weather courtesy of forecast.io.

Closest aviation weather report (METAR) to Long Geng Airport

Closest report is Bintulu Airport, 73.4 nm (135.8 km) WNW. Retrieved 2021/10/23 04:00 UTC (8 minutes ago):

WBGB 230400Z 28005KT 210V010 9999 SCT014 30/24 Q1013

Closest aviation forecast (TAF) to Long Geng Airport

Closest forecast is Bintulu Airport, 73.4 nm (135.8 km) WNW. Retrieved 2021-10-23 00:00 UTC (4 hours ago):

TAF WBGB 222300Z 2300/2400 10005KT 9999 FEW016